Time;durP1;ratioP1;P1;durP2;ratioP2;P2;SDS_P1;SDS_P2;PMS_P1;PMS_P2;Temp;Humidity;BMP_temperature;BMP_pressure;BME280_temperature;BME280_humidity;BME280_pressure;Samples;Min_cycle;Max_cycle;Signal;HPM_P1;HPM_P2
2024/01/12 00:01:12;;;;;;;12.50;5.00;;;;;;;-3.37;89.48;100847.21;103081;1255;97815;-69
2024/01/12 00:03:47;;;;;;;8.00;3.50;;;;;;;-3.39;89.48;100843.23;103595;1256;138517;-69
2024/01/12 00:06:15;;;;;;;12.00;5.10;;;;;;;-3.42;89.32;100844.66;102989;1256;107107;-68
2024/01/12 00:08:43;;;;;;;10.80;4.90;;;;;;;-3.43;89.90;100851.40;102998;1258;97704;-67
2024/01/12 00:11:11;;;;;;;11.90;5.40;;;;;;;-3.44;89.51;100855.45;102915;1258;138690;-68
2024/01/12 00:13:38;;;;;;;12.60;5.20;;;;;;;-3.45;89.82;100854.93;102322;1256;1002697;-68
2024/01/12 00:16:08;;;;;;;12.50;5.20;;;;;;;-3.46;89.86;100862.73;102956;1258;138947;-68
2024/01/12 00:18:36;;;;;;;11.50;5.10;;;;;;;-3.46;89.92;100862.02;103279;1258;1003373;-68
2024/01/12 00:21:03;;;;;;;12.20;5.10;;;;;;;-3.44;90.10;100863.13;102940;1256;140135;-69
2024/01/12 00:23:30;;;;;;;13.40;5.10;;;;;;;-3.44;89.92;100862.44;102382;1258;1003425;-69
2024/01/12 00:25:59;;;;;;;13.70;4.30;;;;;;;-3.42;89.75;100862.49;103031;1258;97977;-68
2024/01/12 00:28:27;;;;;;;11.00;5.10;;;;;;;-3.41;89.84;100852.16;102968;1258;139181;-69
2024/01/12 00:30:54;;;;;;;11.60;5.40;;;;;;;-3.40;89.82;100856.98;103136;1256;107810;-68
2024/01/12 00:33:21;;;;;;;10.00;5.10;;;;;;;-3.38;89.78;100860.95;103037;1256;139134;-68
2024/01/12 00:35:48;;;;;;;10.30;4.70;;;;;;;-3.37;89.57;100854.02;103055;1256;107720;-68
2024/01/12 00:38:16;;;;;;;12.20;5.10;;;;;;;-3.36;89.69;100854.91;103166;1258;97888;-68
2024/01/12 00:40:43;;;;;;;9.90;5.20;;;;;;;-3.34;89.36;100855.96;103082;1256;140447;-68
2024/01/12 00:43:10;;;;;;;10.90;4.70;;;;;;;-3.34;89.34;100849.19;102338;1255;1003174;-68
2024/01/12 00:45:37;;;;;;;9.60;4.70;;;;;;;-3.32;89.19;100849.44;102987;1258;138885;-68
2024/01/12 00:48:05;;;;;;;9.30;4.50;;;;;;;-3.28;88.98;100845.46;103003;1258;108376;-68
2024/01/12 00:50:32;;;;;;;13.80;4.80;;;;;;;-3.25;88.63;100852.71;103240;1255;97886;-69
2024/01/12 00:52:59;;;;;;;9.30;4.50;;;;;;;-3.21;88.55;100850.48;103023;1258;138692;-68
2024/01/12 00:55:26;;;;;;;9.60;4.50;;;;;;;-3.20;88.04;100854.44;102318;1256;1003107;-68
2024/01/12 00:57:55;;;;;;;12.40;5.60;;;;;;;-3.19;87.68;100862.79;102968;1257;137976;-67
2024/01/12 01:00:22;;;;;;;9.50;5.10;;;;;;;-3.21;87.71;100867.16;103175;1256;108732;-67
2024/01/12 01:02:49;;;;;;;11.90;4.40;;;;;;;-3.22;87.14;100870.86;102969;1258;1002256;-69
2024/01/12 01:05:16;;;;;;;12.00;4.50;;;;;;;-3.23;87.15;100877.92;103077;1256;138345;-67
2024/01/12 01:07:43;;;;;;;8.40;4.50;;;;;;;-3.27;87.13;100883.26;102349;1256;1002708;-69
2024/01/12 01:10:12;;;;;;;9.50;4.20;;;;;;;-3.30;86.80;100885.02;102280;1258;1003226;-69
2024/01/12 01:12:39;;;;;;;10.10;3.50;;;;;;;-3.36;86.52;100886.70;102435;1258;1004184;-68
2024/01/12 01:15:09;;;;;;;9.30;3.60;;;;;;;-3.40;86.34;100894.38;103012;1256;139739;-69
2024/01/12 01:17:39;;;;;;;6.90;3.10;;;;;;;-3.45;86.29;100891.31;103250;1258;110718;-68
2024/01/12 01:20:08;;;;;;;6.60;3.40;;;;;;;-3.45;85.76;100892.00;103067;1256;107490;-68
2024/01/12 01:22:35;;;;;;;5.80;3.00;;;;;;;-3.45;85.25;100895.38;103303;1256;138642;-68
2024/01/12 01:25:02;;;;;;;6.00;3.00;;;;;;;-3.47;84.94;100896.51;103032;1256;107615;-69
2024/01/12 01:27:29;;;;;;;5.00;2.70;;;;;;;-3.49;84.78;100897.63;103429;1256;137871;-68
2024/01/12 01:29:56;;;;;;;5.10;2.40;;;;;;;-3.50;84.48;100902.34;102576;1256;1002612;-68
2024/01/12 01:32:22;;;;;;;5.20;2.60;;;;;;;-3.53;83.94;100909.22;103030;1256;107887;-68
2024/01/12 01:34:52;;;;;;;3.20;2.20;;;;;;;-3.56;84.18;100920.86;102940;1256;138369;-68
2024/01/12 01:37:19;;;;;;;3.40;2.20;;;;;;;-3.59;83.30;100924.99;103444;1255;1003741;-68
2024/01/12 01:39:45;;;;;;;4.60;2.30;;;;;;;-3.62;83.12;100932.84;103381;1258;138052;-68
2024/01/12 01:42:12;;;;;;;3.70;2.50;;;;;;;-3.67;83.04;100940.52;103687;1256;110905;-68
2024/01/12 01:44:39;;;;;;;3.00;1.80;;;;;;;-3.72;82.44;100943.90;103445;1256;107626;-68
2024/01/12 01:47:07;;;;;;;5.30;2.30;;;;;;;-3.76;82.53;100952.45;102992;1256;140193;-68
2024/01/12 01:49:34;;;;;;;4.20;2.00;;;;;;;-3.77;82.53;100954.77;103660;1256;107764;-68
2024/01/12 01:52:03;;;;;;;5.00;2.20;;;;;;;-3.78;82.43;100956.94;104031;1256;139557;-67
2024/01/12 01:54:32;;;;;;;4.60;2.20;;;;;;;-3.79;82.33;100956.05;103102;1259;110910;-68
2024/01/12 01:56:59;;;;;;;3.50;2.00;;;;;;;-3.77;82.29;100970.41;103434;1256;108947;-68
2024/01/12 01:59:27;;;;;;;5.00;2.00;;;;;;;-3.76;81.85;100965.17;102437;1255;1002890;-68
2024/01/12 02:01:54;;;;;;;6.10;2.80;;;;;;;-3.76;82.21;100958.71;102325;1256;1003259;-68
2024/01/12 02:04:22;;;;;;;7.40;3.60;;;;;;;-3.78;81.63;100947.73;102328;1256;1003068;-68
2024/01/12 02:06:50;;;;;;;9.10;3.90;;;;;;;-3.80;82.12;100953.77;103715;1255;111688;-68
2024/01/12 02:09:17;;;;;;;8.60;4.10;;;;;;;-3.83;81.89;100956.04;102153;1256;1003035;-68
2024/01/12 02:11:44;;;;;;;8.40;4.30;;;;;;;-3.89;81.68;100960.77;103087;1258;98140;-67
2024/01/12 02:14:11;;;;;;;10.50;4.30;;;;;;;-3.95;81.95;100958.00;102339;1254;1003439;-67
2024/01/12 02:16:38;;;;;;;8.80;4.30;;;;;;;-4.03;81.50;100957.85;103603;1258;138341;-67
2024/01/12 02:19:05;;;;;;;8.30;3.90;;;;;;;-4.11;81.52;100954.83;102510;1255;1003411;-67
2024/01/12 02:21:33;;;;;;;6.90;3.20;;;;;;;-4.16;81.41;100955.30;103418;1256;165996;-67
2024/01/12 02:24:00;;;;;;;7.30;3.90;;;;;;;-4.20;81.19;100959.73;103091;1256;97795;-67
2024/01/12 02:26:27;;;;;;;8.00;3.90;;;;;;;-4.25;81.70;100959.73;102997;1256;107187;-67
2024/01/12 02:28:54;;;;;;;7.30;2.90;;;;;;;-4.29;81.47;100964.88;102955;1256;139383;-66
2024/01/12 02:31:22;;;;;;;6.80;3.20;;;;;;;-4.31;81.15;100967.47;103139;1256;110501;-67
2024/01/12 02:33:50;;;;;;;5.90;3.00;;;;;;;-4.32;81.47;100975.08;103023;1256;138459;-67
2024/01/12 02:36:18;;;;;;;7.90;3.30;;;;;;;-4.33;80.86;100980.64;103056;1258;97793;-67
2024/01/12 02:38:49;;;;;;;6.00;2.80;;;;;;;-4.34;80.81;100983.66;103127;1258;108499;-66
2024/01/12 02:41:16;;;;;;;7.80;2.80;;;;;;;-4.34;81.02;100980.23;102986;1258;137553;-67
2024/01/12 02:43:44;;;;;;;5.40;2.90;;;;;;;-4.36;80.67;100984.77;102343;1254;1003186;-67
2024/01/12 02:46:11;;;;;;;7.20;2.90;;;;;;;-4.38;80.41;100983.50;102991;1257;139048;-67
2024/01/12 02:48:37;;;;;;;5.80;2.70;;;;;;;-4.42;80.12;100985.38;103144;1259;97809;-69
2024/01/12 02:51:05;;;;;;;5.60;2.40;;;;;;;-4.47;80.18;100982.14;103664;1258;138959;-68
2024/01/12 02:53:32;;;;;;;4.10;2.50;;;;;;;-4.52;80.17;100982.40;103247;1255;97808;-67
2024/01/12 02:55:59;;;;;;;5.70;3.00;;;;;;;-4.57;80.11;100978.98;103391;1254;111206;-69
2024/01/12 02:58:26;;;;;;;5.30;2.90;;;;;;;-4.63;79.85;100978.59;104345;1256;138406;-68
2024/01/12 03:00:53;;;;;;;4.30;2.50;;;;;;;-4.70;79.63;100979.97;103964;1255;98324;-67
2024/01/12 03:03:20;;;;;;;4.40;2.30;;;;;;;-4.72;79.63;100982.28;104032;1258;140628;-67
2024/01/12 03:05:48;;;;;;;4.80;2.30;;;;;;;-4.75;79.72;100982.33;102461;1256;1003313;-67
2024/01/12 03:08:15;;;;;;;4.10;2.10;;;;;;;-4.78;79.51;100987.83;104058;1255;111637;-68
2024/01/12 03:10:42;;;;;;;4.00;2.50;;;;;;;-4.79;79.52;100989.10;103830;1256;139465;-67
2024/01/12 03:13:09;;;;;;;4.70;2.30;;;;;;;-4.82;79.36;100989.70;102328;1256;1003310;-66
2024/01/12 03:15:36;;;;;;;4.50;2.60;;;;;;;-4.80;79.72;100992.96;103161;1256;138779;-67
2024/01/12 03:18:03;;;;;;;4.20;2.60;;;;;;;-4.79;79.57;100992.00;103829;1258;97599;-67
2024/01/12 03:20:31;;;;;;;5.30;2.30;;;;;;;-4.78;79.52;100988.16;103557;1256;110190;-68
2024/01/12 03:22:57;;;;;;;4.60;2.60;;;;;;;-4.78;79.11;100989.50;102946;1259;138027;-67
2024/01/12 03:25:24;;;;;;;5.40;2.90;;;;;;;-4.80;79.30;100988.25;101898;1256;1005610;-68
2024/01/12 03:27:51;;;;;;;6.80;3.20;;;;;;;-4.82;78.70;100992.40;102686;1258;1002372;-67
2024/01/12 03:30:19;;;;;;;5.90;3.10;;;;;;;-4.85;78.89;100987.02;103560;1256;97818;-65
2024/01/12 03:32:46;;;;;;;7.60;3.40;;;;;;;-4.87;79.15;100986.44;102937;1267;110730;-66
2024/01/12 03:35:13;;;;;;;6.50;3.50;;;;;;;-4.93;78.97;100979.05;102845;1258;139623;-67
2024/01/12 03:37:40;;;;;;;7.40;3.40;;;;;;;-4.96;78.99;100980.44;103040;1256;100189;-68
2024/01/12 03:40:09;;;;;;;10.10;4.40;;;;;;;-5.00;79.22;100982.84;102949;1259;139002;-67
2024/01/12 03:42:36;;;;;;;11.80;4.50;;;;;;;-5.04;79.34;100979.62;103283;1258;97681;-67
2024/01/12 03:45:03;;;;;;;13.80;5.20;;;;;;;-5.02;79.08;100986.63;102851;1258;138766;-68
2024/01/12 03:47:30;;;;;;;13.30;4.80;;;;;;;-5.02;79.92;100986.67;103233;1259;107600;-69
2024/01/12 03:49:57;;;;;;;10.60;4.50;;;;;;;-4.99;79.65;100988.81;102980;1258;97823;-67
2024/01/12 03:52:24;;;;;;;9.10;4.70;;;;;;;-4.96;79.70;100988.91;102891;1255;138564;-67
2024/01/12 03:54:51;;;;;;;8.30;4.00;;;;;;;-4.94;79.84;100996.48;102997;1259;97802;-68
2024/01/12 03:57:17;;;;;;;10.20;4.20;;;;;;;-4.93;80.01;100994.48;102897;1259;138836;-68
2024/01/12 03:59:45;;;;;;;11.40;4.20;;;;;;;-4.94;79.77;100992.05;103012;1260;108526;-68
2024/01/12 04:02:12;;;;;;;7.40;3.80;;;;;;;-4.94;79.48;100995.28;103139;1256;98291;-68
2024/01/12 04:04:41;;;;;;;8.80;4.60;;;;;;;-4.95;79.58;101007.65;103138;1256;138036;-67
2024/01/12 04:07:08;;;;;;;14.90;7.00;;;;;;;-4.98;79.04;101014.64;102234;1256;1002909;-67
2024/01/12 04:09:35;;;;;;;11.70;4.80;;;;;;;-5.05;79.30;101012.12;102221;1256;1002935;-67
2024/01/12 04:12:02;;;;;;;9.10;4.60;;;;;;;-5.09;79.03;101015.66;102581;1258;1002142;-67
2024/01/12 04:14:29;;;;;;;10.20;4.50;;;;;;;-5.15;78.89;101011.16;103585;1257;98382;-68
2024/01/12 04:16:58;;;;;;;9.60;4.90;;;;;;;-5.21;78.89;101012.98;102887;1259;138517;-68
2024/01/12 04:19:25;;;;;;;12.40;5.00;;;;;;;-5.26;78.87;101015.08;103586;1257;96174;-67
2024/01/12 04:21:52;;;;;;;8.90;4.70;;;;;;;-5.30;78.96;101014.59;102854;1256;138463;-66
2024/01/12 04:24:19;;;;;;;8.90;5.30;;;;;;;-5.35;79.28;101013.50;103171;1256;107317;-67
2024/01/12 04:26:46;;;;;;;10.50;4.60;;;;;;;-5.41;78.81;101016.29;103342;1258;97675;-68
2024/01/12 04:29:13;;;;;;;10.30;4.50;;;;;;;-5.47;79.16;101012.48;103311;1258;1002287;-68
2024/01/12 04:31:43;;;;;;;9.50;4.60;;;;;;;-5.53;78.75;101010.55;103307;1258;97796;-67
2024/01/12 04:34:10;;;;;;;8.80;5.60;;;;;;;-5.56;78.79;101012.58;104217;1258;138789;-69
2024/01/12 04:36:37;;;;;;;10.00;5.30;;;;;;;-5.60;79.00;101012.89;104382;1257;108848;-68
2024/01/12 04:39:04;;;;;;;8.70;5.10;;;;;;;-5.61;79.20;101020.33;102933;1256;139101;-68
2024/01/12 04:41:31;;;;;;;10.60;4.40;;;;;;;-5.63;79.07;101025.46;102328;1258;1003588;-69
2024/01/12 04:43:58;;;;;;;6.80;3.70;;;;;;;-5.67;79.19;101021.59;103000;1260;98764;-68
2024/01/12 04:46:25;;;;;;;7.80;4.10;;;;;;;-5.63;79.21;101025.96;103204;1256;138404;-67
2024/01/12 04:48:52;;;;;;;7.70;3.90;;;;;;;-5.63;79.04;101028.04;103043;1256;107316;-67
2024/01/12 04:51:20;;;;;;;9.30;3.70;;;;;;;-5.64;78.99;101022.05;103305;1258;137900;-68
2024/01/12 04:53:47;;;;;;;7.30;3.90;;;;;;;-5.64;78.88;101025.09;103488;1257;107769;-68
2024/01/12 04:56:14;;;;;;;10.10;6.10;;;;;;;-5.65;79.06;101023.87;103635;1257;97805;-67
2024/01/12 04:58:41;;;;;;;9.00;4.60;;;;;;;-5.66;78.88;101026.55;102942;1259;138919;-67
2024/01/12 05:01:08;;;;;;;7.30;3.90;;;;;;;-5.67;78.79;101028.52;103584;1257;109830;-68
2024/01/12 05:03:34;;;;;;;6.40;3.30;;;;;;;-5.68;78.79;101027.45;104250;1257;138234;-68
2024/01/12 05:06:01;;;;;;;5.90;3.30;;;;;;;-5.68;78.78;101029.98;103286;1256;107713;-67
2024/01/12 05:08:28;;;;;;;5.90;3.40;;;;;;;-5.70;78.99;101024.85;103140;1259;97829;-68
2024/01/12 05:10:55;;;;;;;6.10;3.40;;;;;;;-5.72;78.84;101027.98;102945;1257;137885;-68
2024/01/12 05:13:22;;;;;;;4.70;3.00;;;;;;;-5.74;78.71;101024.14;103076;1259;108188;-67
2024/01/12 05:15:49;;;;;;;5.40;3.00;;;;;;;-5.76;78.89;101021.66;103025;1256;139036;-68
2024/01/12 05:18:16;;;;;;;5.90;3.00;;;;;;;-5.77;79.15;101023.64;103078;1258;108071;-67
2024/01/12 05:20:43;;;;;;;5.50;2.80;;;;;;;-5.77;79.15;101022.96;103149;1260;97700;-67
2024/01/12 05:23:11;;;;;;;4.90;2.60;;;;;;;-5.76;79.21;101023.69;102200;1259;1003890;-67
2024/01/12 05:25:38;;;;;;;4.50;2.50;;;;;;;-5.72;79.02;101029.63;103131;1260;107626;-68
2024/01/12 05:28:05;;;;;;;7.30;2.60;;;;;;;-5.67;78.90;101030.90;103003;1259;138464;-68
2024/01/12 05:30:32;;;;;;;6.20;3.10;;;;;;;-5.62;78.78;101034.00;103155;1259;108433;-68
2024/01/12 05:32:59;;;;;;;6.40;3.40;;;;;;;-5.59;78.45;101035.84;103064;1260;97812;-68
2024/01/12 05:35:26;;;;;;;4.90;3.00;;;;;;;-5.57;78.28;101033.37;103073;1257;111240;-68
2024/01/12 05:37:54;;;;;;;6.40;3.10;;;;;;;-5.57;78.48;101033.54;103078;1260;107547;-67
2024/01/12 05:40:22;;;;;;;6.50;3.50;;;;;;;-5.56;78.35;101032.23;102234;1259;1003227;-68
2024/01/12 05:42:49;;;;;;;7.30;4.30;;;;;;;-5.57;77.98;101032.70;103052;1259;107768;-68
2024/01/12 05:45:16;;;;;;;7.70;4.10;;;;;;;-5.62;78.06;101034.36;103003;1262;138161;-69
2024/01/12 05:47:42;;;;;;;6.40;3.80;;;;;;;-5.62;78.12;101036.20;103122;1257;111612;-68
2024/01/12 05:50:10;;;;;;;8.70;4.00;;;;;;;-5.64;78.18;101028.49;103045;1258;108719;-68
2024/01/12 05:52:38;;;;;;;7.90;4.10;;;;;;;-5.64;78.26;101029.83;102384;1260;1003060;-68
2024/01/12 05:55:06;;;;;;;8.40;4.10;;;;;;;-5.68;78.50;101020.36;103125;1258;107989;-68
2024/01/12 05:57:34;;;;;;;10.00;5.00;;;;;;;-5.72;78.42;101021.20;103461;1258;138045;-68
2024/01/12 06:00:02;;;;;;;10.00;4.40;;;;;;;-5.73;78.22;101023.70;103078;1257;111738;-68
2024/01/12 06:02:30;;;;;;;8.20;4.10;;;;;;;-5.73;78.40;101020.81;103604;1259;107854;-68
2024/01/12 06:04:57;;;;;;;6.90;3.30;;;;;;;-5.74;78.70;101023.98;104282;1258;140577;-68
2024/01/12 06:07:24;;;;;;;8.70;3.70;;;;;;;-5.73;78.65;101023.31;104223;1256;108027;-68
2024/01/12 06:09:51;;;;;;;8.10;4.20;;;;;;;-5.70;78.66;101025.31;103035;1257;138988;-67
2024/01/12 06:12:18;;;;;;;9.40;3.60;;;;;;;-5.65;78.93;101026.07;102990;1258;114014;-68
2024/01/12 06:14:45;;;;;;;6.10;3.40;;;;;;;-5.58;78.80;101019.10;103098;1260;107412;-67
2024/01/12 06:17:12;;;;;;;8.90;3.90;;;;;;;-5.49;78.77;101020.02;103298;1260;138135;-67
2024/01/12 06:19:39;;;;;;;8.70;4.10;;;;;;;-5.41;79.12;101015.62;103132;1257;108135;-67
2024/01/12 06:22:06;;;;;;;8.90;4.80;;;;;;;-5.34;79.04;101013.06;102915;1257;138357;-68
2024/01/12 06:24:33;;;;;;;10.10;5.50;;;;;;;-5.26;79.21;101009.00;103125;1258;111242;-67
2024/01/12 06:27:00;;;;;;;8.90;5.30;;;;;;;-5.20;78.86;101008.74;103101;1261;107669;-68
2024/01/12 06:29:30;;;;;;;10.40;5.40;;;;;;;-5.16;79.02;101011.13;103088;1267;97884;-68
2024/01/12 06:31:57;;;;;;;10.50;5.60;;;;;;;-5.10;79.15;101014.59;103088;1260;108338;-68
2024/01/12 06:34:24;;;;;;;11.60;6.40;;;;;;;-5.07;78.91;101014.20;102787;1257;1003621;-69
2024/01/12 06:36:51;;;;;;;14.80;7.00;;;;;;;-5.09;78.68;101015.14;103105;1257;111123;-69
2024/01/12 06:39:18;;;;;;;15.70;8.40;;;;;;;-5.12;78.34;101015.35;103393;1256;140428;-68
2024/01/12 06:41:46;;;;;;;17.40;9.90;;;;;;;-5.20;78.29;101011.46;101967;1257;1003831;-68
2024/01/12 06:44:13;;;;;;;15.30;8.20;;;;;;;-5.22;78.36;101011.19;104069;1257;106932;-68
2024/01/12 06:46:45;;;;;;;18.00;8.20;;;;;;;-5.21;78.53;101010.88;102655;1257;1003033;-67
2024/01/12 06:49:12;;;;;;;13.40;7.20;;;;;;;-5.20;78.91;101010.99;103139;1254;110866;-68
2024/01/12 06:51:39;;;;;;;11.10;6.50;;;;;;;-5.17;78.80;101009.05;103124;1260;139165;-68
2024/01/12 06:54:07;;;;;;;11.00;6.30;;;;;;;-5.11;78.80;101009.98;102651;1257;1003082;-68
2024/01/12 06:56:37;;;;;;;16.20;7.60;;;;;;;-5.06;78.99;101009.17;103274;1260;108464;-68
2024/01/12 06:59:05;;;;;;;14.60;7.50;;;;;;;-4.95;78.75;101020.02;102998;1260;137955;-68
2024/01/12 07:01:32;;;;;;;12.00;7.40;;;;;;;-4.87;78.42;101026.27;104127;1256;111516;-67
2024/01/12 07:03:59;;;;;;;14.50;7.80;;;;;;;-4.83;78.40;101027.64;104095;1258;138665;-68
2024/01/12 07:06:26;;;;;;;16.00;8.00;;;;;;;-4.79;78.51;101027.79;103510;1259;99117;-68
2024/01/12 07:08:53;;;;;;;16.30;8.40;;;;;;;-4.75;78.53;101028.62;103196;1260;107578;-68
2024/01/12 07:11:20;;;;;;;14.30;7.80;;;;;;;-4.68;78.23;101032.67;103196;1257;137849;-68
2024/01/12 07:13:47;;;;;;;13.40;7.90;;;;;;;-4.63;78.17;101034.92;103494;1258;111788;-71
2024/01/12 07:16:14;;;;;;;14.90;7.80;;;;;;;-4.64;78.00;101035.06;103134;1257;138169;-71
2024/01/12 07:18:41;;;;;;;13.70;7.70;;;;;;;-4.62;78.30;101036.17;103137;1257;97813;-69
2024/01/12 07:21:09;;;;;;;15.70;8.60;;;;;;;-4.62;77.67;101038.88;102945;1257;138240;-70
2024/01/12 07:23:36;;;;;;;16.60;9.40;;;;;;;-4.67;77.63;101038.34;102240;1259;1003304;-71
2024/01/12 07:26:03;;;;;;;21.00;9.30;;;;;;;-4.74;77.20;101036.33;102993;1257;1002386;-70
2024/01/12 07:28:30;;;;;;;16.10;9.20;;;;;;;-4.76;77.36;101039.10;102826;1259;138761;-70
2024/01/12 07:30:57;;;;;;;12.30;7.80;;;;;;;-4.79;77.24;101037.14;103096;1258;97687;-69
2024/01/12 07:33:24;;;;;;;17.20;9.50;;;;;;;-4.80;77.70;101031.67;102894;1258;138136;-69
2024/01/12 07:35:51;;;;;;;19.80;9.60;;;;;;;-4.77;77.80;101034.00;103683;1256;96224;-69
2024/01/12 07:38:19;;;;;;;19.30;10.10;;;;;;;-4.72;77.81;101029.10;104364;1257;112644;-69
2024/01/12 07:40:47;;;;;;;18.70;11.00;;;;;;;-4.68;77.99;101027.89;102991;1259;139004;-70
2024/01/12 07:43:14;;;;;;;16.50;9.20;;;;;;;-4.65;77.68;101023.65;102326;1254;1016100;-72
2024/01/12 07:45:41;;;;;;;20.80;10.20;;;;;;;-4.59;77.71;101024.58;102919;1257;138667;-73
2024/01/12 07:48:08;;;;;;;25.00;11.00;;;;;;;-4.50;77.85;101025.78;103037;1256;97866;-70
2024/01/12 07:50:37;;;;;;;19.90;10.50;;;;;;;-4.43;77.81;101019.96;103069;1255;110642;-71
2024/01/12 07:53:04;;;;;;;21.50;10.50;;;;;;;-4.41;77.73;101011.05;102730;1260;138549;-73
2024/01/12 07:55:31;;;;;;;18.40;10.10;;;;;;;-4.34;77.72;101009.64;103090;1262;97887;-70
2024/01/12 07:57:58;;;;;;;19.60;10.20;;;;;;;-4.29;77.45;101011.05;102267;1259;1002831;-73
2024/01/12 08:00:25;;;;;;;23.30;11.90;;;;;;;-4.27;77.54;101011.80;103069;1259;98202;-70
2024/01/12 08:02:53;;;;;;;28.40;13.30;;;;;;;-4.27;77.12;101008.91;102249;1260;1002913;-73
2024/01/12 08:05:22;;;;;;;28.20;13.30;;;;;;;-4.26;77.42;101008.95;102762;1257;139043;-73
2024/01/12 08:07:50;;;;;;;26.30;13.10;;;;;;;-4.22;77.62;101000.92;102336;1260;1003709;-73
2024/01/12 08:10:17;;;;;;;20.10;10.00;;;;;;;-4.16;77.84;100996.23;102254;1258;1002541;-73
2024/01/12 08:12:44;;;;;;;23.80;10.90;;;;;;;-4.11;77.72;100994.75;102304;1257;1003222;-72
2024/01/12 08:15:11;;;;;;;22.50;11.30;;;;;;;-4.04;77.24;100989.90;102151;1257;1003323;-74
2024/01/12 08:17:39;;;;;;;18.80;10.80;;;;;;;-4.01;77.17;100988.34;103013;1257;106846;-74
2024/01/12 08:20:08;;;;;;;22.30;10.80;;;;;;;-3.98;76.61;100989.29;103048;1257;99722;-73
2024/01/12 08:22:35;;;;;;;24.50;12.80;;;;;;;-3.94;77.02;100985.88;103074;1258;137917;-72
2024/01/12 08:25:02;;;;;;;21.00;12.00;;;;;;;-3.90;77.12;100987.58;103020;1260;97832;-73
2024/01/12 08:27:29;;;;;;;22.70;12.20;;;;;;;-3.87;76.91;100984.80;102889;1260;138300;-71
2024/01/12 08:29:55;;;;;;;20.40;12.40;;;;;;;-3.85;76.76;100985.55;103023;1257;106944;-71
2024/01/12 08:32:23;;;;;;;25.00;12.60;;;;;;;-3.86;76.69;100989.77;102288;1256;1002724;-72
2024/01/12 08:34:51;;;;;;;26.40;13.40;;;;;;;-3.84;76.62;100986.25;102901;1258;138768;-72
2024/01/12 08:37:17;;;;;;;25.70;14.40;;;;;;;-3.82;76.69;100982.25;102986;1257;97813;-68
2024/01/12 08:39:44;;;;;;;24.10;14.00;;;;;;;-3.79;76.57;100981.52;103340;1257;138182;-66
2024/01/12 08:42:11;;;;;;;26.70;14.10;;;;;;;-3.80;76.60;100980.95;103655;1254;108130;-73
2024/01/12 08:44:39;;;;;;;22.00;13.50;;;;;;;-3.74;76.81;100982.23;103105;1257;97728;-72
2024/01/12 08:47:07;;;;;;;25.70;14.20;;;;;;;-3.65;76.88;100985.79;103084;1257;137682;-71
2024/01/12 08:49:33;;;;;;;20.80;12.90;;;;;;;-3.60;76.75;100991.23;103379;1257;97696;-72
2024/01/12 08:52:00;;;;;;;24.20;12.40;;;;;;;-3.57;76.96;100980.98;103047;1261;139275;-72
2024/01/12 08:54:27;;;;;;;23.80;13.20;;;;;;;-3.50;76.99;100978.84;103064;1260;107458;-70
2024/01/12 08:56:54;;;;;;;22.00;13.10;;;;;;;-3.39;76.95;100977.21;103090;1256;98661;-70
2024/01/12 08:59:22;;;;;;;24.60;13.20;;;;;;;-3.27;76.92;100977.80;103193;1260;138276;-71
2024/01/12 09:01:49;;;;;;;21.30;13.20;;;;;;;-3.12;76.74;100975.10;103061;1255;98699;-70
2024/01/12 09:04:16;;;;;;;24.10;13.20;;;;;;;-3.05;76.46;100974.48;102913;1255;137873;-74
2024/01/12 09:06:43;;;;;;;25.30;14.00;;;;;;;-2.97;76.58;100974.60;103020;1257;107155;-74
2024/01/12 09:09:12;;;;;;;23.80;14.30;;;;;;;-2.89;76.29;100980.13;102921;1256;138928;-77
2024/01/12 09:11:39;;;;;;;28.90;16.00;;;;;;;-2.87;75.93;100978.98;103530;1257;107828;-73
2024/01/12 09:14:07;;;;;;;28.60;15.70;;;;;;;-2.85;76.10;100980.30;103099;1258;97894;-74
2024/01/12 09:16:36;;;;;;;31.20;18.20;;;;;;;-2.82;75.90;100964.73;102934;1260;138279;-76
2024/01/12 09:19:03;;;;;;;32.30;17.40;;;;;;;-2.76;76.11;100956.92;102991;1257;107598;-74
2024/01/12 09:21:30;;;;;;;33.90;18.80;;;;;;;-2.75;75.73;100960.17;102858;1257;138679;-74
2024/01/12 09:23:57;;;;;;;34.70;19.00;;;;;;;-2.72;75.47;100959.94;102222;1257;1002876;-73
2024/01/12 09:26:25;;;;;;;30.00;18.10;;;;;;;-2.66;75.38;100953.87;103030;1257;97772;-74
2024/01/12 09:28:52;;;;;;;31.30;18.30;;;;;;;-2.62;75.63;100947.84;102959;1257;138817;-73
2024/01/12 09:31:19;;;;;;;34.00;19.10;;;;;;;-2.61;75.02;100948.73;103147;1256;108304;-74
2024/01/12 09:33:46;;;;;;;31.10;18.80;;;;;;;-2.60;75.03;100947.75;103435;1257;138375;-75
2024/01/12 09:36:13;;;;;;;34.40;19.00;;;;;;;-2.62;74.77;100946.15;103039;1256;108839;-72
2024/01/12 09:38:40;;;;;;;38.80;19.20;;;;;;;-2.67;74.76;100939.67;103220;1260;97721;-72
2024/01/12 09:41:10;;;;;;;32.10;19.50;;;;;;;-2.74;74.42;100936.55;102873;1256;138318;-74
2024/01/12 09:43:38;;;;;;;30.30;17.60;;;;;;;-2.82;74.60;100933.75;102282;1259;1002524;-72
2024/01/12 09:46:08;;;;;;;28.50;16.90;;;;;;;-2.85;74.91;100931.61;103504;1256;138985;-74
2024/01/12 09:48:36;;;;;;;30.10;17.30;;;;;;;-2.82;75.24;100926.95;103911;1257;109647;-76
2024/01/12 09:51:04;;;;;;;28.50;15.90;;;;;;;-2.74;75.38;100917.34;103282;1254;98453;-76
2024/01/12 09:53:31;;;;;;;28.50;16.70;;;;;;;-2.65;74.96;100914.06;103694;1259;111525;-74
2024/01/12 09:55:59;;;;;;;29.70;16.60;;;;;;;-2.61;74.47;100918.09;103072;1256;107865;-74
2024/01/12 09:58:34;;;;;;;27.90;16.00;;;;;;;-2.55;74.51;100910.09;102967;1258;138296;-74
2024/01/12 10:01:02;;;;;;;27.20;16.60;;;;;;;-2.52;74.32;100904.61;103064;1257;106873;-75
2024/01/12 10:03:29;;;;;;;28.30;15.50;;;;;;;-2.48;74.39;100908.47;102973;1256;138751;-75
2024/01/12 10:05:56;;;;;;;25.90;14.90;;;;;;;-2.48;73.93;100900.13;103001;1258;110515;-76
2024/01/12 10:08:23;;;;;;;22.30;12.70;;;;;;;-2.50;73.92;100898.19;102158;1259;1003325;-75
2024/01/12 10:10:51;;;;;;;21.10;12.80;;;;;;;-2.51;73.96;100896.45;102996;1257;138112;-74
2024/01/12 10:13:18;;;;;;;20.80;12.10;;;;;;;-2.49;73.66;100900.61;103103;1257;107865;-75
2024/01/12 10:15:44;;;;;;;21.90;12.10;;;;;;;-2.44;73.76;100902.63;102170;1258;1003412;-74
2024/01/12 10:18:11;;;;;;;19.70;11.60;;;;;;;-2.39;73.59;100900.19;103489;1256;109849;-74
2024/01/12 10:20:39;;;;;;;20.40;11.60;;;;;;;-2.42;73.00;100887.86;103175;1257;107028;-75
2024/01/12 10:23:08;;;;;;;18.90;11.10;;;;;;;-2.39;73.33;100876.35;103267;1254;138307;-74
2024/01/12 10:25:35;;;;;;;19.50;11.00;;;;;;;-2.28;73.33;100861.52;103658;1256;109596;-75
2024/01/12 10:28:02;;;;;;;17.60;10.40;;;;;;;-2.06;73.59;100874.11;103502;1256;139744;-74
2024/01/12 10:30:31;;;;;;;20.30;11.90;;;;;;;-1.73;73.82;100874.87;103511;1260;110871;-74
2024/01/12 10:32:58;;;;;;;19.80;10.80;;;;;;;-1.40;73.38;100870.13;103125;1259;107259;-75
2024/01/12 10:35:25;;;;;;;19.40;10.70;;;;;;;-1.17;73.08;100865.09;103042;1259;137808;-75
2024/01/12 10:37:57;;;;;;;21.80;11.90;;;;;;;-0.97;72.45;100862.16;103139;1257;107719;-77
2024/01/12 10:40:24;;;;;;;16.90;10.60;;;;;;;-0.62;72.81;100853.95;102984;1256;138278;-76
2024/01/12 10:42:54;;;;;;;16.90;10.40;;;;;;;-0.12;72.58;100849.91;103023;1256;110595;-76
2024/01/12 10:45:25;;;;;;;17.30;10.20;;;;;;;0.36;72.05;100841.79;102967;1258;138323;-77
2024/01/12 10:48:01;;;;;;;18.30;10.20;;;;;;;0.80;71.07;100843.09;103013;1256;98338;-73
2024/01/12 10:50:30;;;;;;;15.90;9.60;;;;;;;1.12;70.33;100843.28;104449;1257;107470;-72
2024/01/12 10:53:18;;;;;;;16.10;10.70;;;;;;;1.42;69.62;100842.36;104105;1256;143768;-71
2024/01/12 10:55:54;;;;;;;19.30;10.70;;;;;;;1.69;69.20;100844.10;102548;1259;1002922;-72
2024/01/12 10:58:22;;;;;;;18.30;11.00;;;;;;;2.00;69.12;100835.92;102953;1256;138095;-75
2024/01/12 11:00:49;;;;;;;21.30;11.50;;;;;;;2.25;68.93;100830.39;103010;1257;97698;-73
2024/01/12 11:03:17;;;;;;;23.40;12.70;;;;;;;2.50;68.67;100823.62;102993;1257;137833;-72